createdAt,value
2023-04-15T00:00:58.254Z,93.93
2023-04-15T00:03:25.883Z,94.02
2023-04-15T00:05:53.242Z,93.92
2023-04-15T00:08:20.627Z,93.87
2023-04-15T00:10:47.832Z,93.34
2023-04-15T00:13:15.389Z,94.23
2023-04-15T00:15:43.299Z,94.05
2023-04-15T00:18:10.553Z,93.74
2023-04-15T00:20:37.886Z,94.08
2023-04-15T00:23:05.572Z,93.88
2023-04-15T00:25:33.027Z,94.34
2023-04-15T00:28:00.162Z,94.12
2023-04-15T00:30:27.286Z,94.07
2023-04-15T00:32:54.384Z,94.13
2023-04-15T00:35:21.786Z,94.77
2023-04-15T00:37:48.846Z,94.54
2023-04-15T00:40:17.809Z,94.27
2023-04-15T00:42:45.433Z,94.22
2023-04-15T00:45:12.939Z,94.59
2023-04-15T00:47:42.116Z,94.24
2023-04-15T00:50:09.959Z,94.35
2023-04-15T00:52:37.189Z,94.79
2023-04-15T00:55:05.353Z,94.53
2023-04-15T00:57:33.250Z,95.04
2023-04-15T01:00:01.068Z,95.14
2023-04-15T01:02:28.899Z,95.18
2023-04-15T01:04:57.087Z,95.13
2023-04-15T01:07:25.151Z,94.91
2023-04-15T01:09:56.736Z,95.04
2023-04-15T01:12:24.990Z,94.75
2023-04-15T01:14:54.400Z,94.90
2023-04-15T01:17:23.018Z,94.74
2023-04-15T01:19:50.650Z,94.73
2023-04-15T01:22:20.428Z,95.40
2023-04-15T01:25:02.362Z,94.30
2023-04-15T01:27:30.326Z,95.06
2023-04-15T01:29:57.628Z,95.18
2023-04-15T01:32:25.542Z,95.45
2023-04-15T01:34:54.034Z,94.75
2023-04-15T01:37:22.048Z,94.72
2023-04-15T01:39:50.070Z,94.92
2023-04-15T01:42:18.131Z,94.97
2023-04-15T01:44:45.503Z,94.63
2023-04-15T01:47:12.785Z,94.28
2023-04-15T01:49:39.827Z,94.59
2023-04-15T01:52:07.008Z,94.73
2023-04-15T01:54:34.421Z,94.57
2023-04-15T01:57:02.280Z,94.68
2023-04-15T01:59:31.322Z,94.67
2023-04-15T02:01:58.852Z,94.68
2023-04-15T02:04:27.091Z,94.92
2023-04-15T02:06:55.536Z,95.55
2023-04-15T02:09:23.406Z,94.99
2023-04-15T02:11:53.457Z,94.71
2023-04-15T02:14:21.931Z,95.13
2023-04-15T02:16:50.285Z,95.24
2023-04-15T02:19:18.950Z,95.29
2023-04-15T02:21:46.744Z,95.17
2023-04-15T02:24:16.823Z,94.99
2023-04-15T02:26:44.926Z,94.92
2023-04-15T02:29:13.210Z,95.28
2023-04-15T02:31:42.138Z,95.20
2023-04-15T02:34:10.952Z,95.12
2023-04-15T02:36:40.285Z,94.91
2023-04-15T02:39:08.375Z,95.21
2023-04-15T02:41:37.245Z,95.12
2023-04-15T02:44:04.976Z,94.85
2023-04-15T02:46:33.209Z,95.06
2023-04-15T02:49:01.232Z,95.65
2023-04-15T02:51:33.254Z,94.77
2023-04-15T02:54:01.805Z,94.90
2023-04-15T02:56:30.793Z,94.93
2023-04-15T02:59:00.015Z,95.92
2023-04-15T03:01:27.438Z,95.76
2023-04-15T03:03:56.225Z,95.76
2023-04-15T03:06:24.727Z,95.44
2023-04-15T03:08:52.529Z,95.21
2023-04-15T03:11:20.165Z,95.08
2023-04-15T03:13:47.261Z,95.23
2023-04-15T03:16:14.457Z,95.60
2023-04-15T03:18:41.769Z,95.11
2023-04-15T03:21:08.935Z,95.19
2023-04-15T03:23:36.164Z,95.33
2023-04-15T03:26:03.694Z,95.81
2023-04-15T03:28:31.024Z,95.46
2023-04-15T03:30:58.677Z,95.47
2023-04-15T03:33:25.928Z,95.30
2023-04-15T03:35:53.317Z,95.49
2023-04-15T03:38:20.586Z,95.33
2023-04-15T03:40:47.640Z,95.28
2023-04-15T03:43:14.780Z,96.00
2023-04-15T03:45:41.988Z,95.68
2023-04-15T03:48:17.253Z,95.12
2023-04-15T03:50:45.458Z,95.06
2023-04-15T03:53:12.574Z,95.24
2023-04-15T03:55:39.830Z,95.22
2023-04-15T03:58:06.882Z,95.24
2023-04-15T04:00:33.957Z,95.11
2023-04-15T04:03:01.122Z,95.09
2023-04-15T04:05:28.278Z,95.26
2023-04-15T04:07:55.356Z,96.02
2023-04-15T04:10:22.384Z,95.81
2023-04-15T04:12:49.398Z,95.82
2023-04-15T04:15:16.565Z,95.22
2023-04-15T04:17:43.676Z,95.21
2023-04-15T04:20:11.516Z,95.10
2023-04-15T04:22:42.388Z,95.58
2023-04-15T04:25:10.376Z,95.21
2023-04-15T04:27:37.884Z,94.77
2023-04-15T04:30:06.515Z,95.29
2023-04-15T04:32:33.611Z,95.02
2023-04-15T04:35:01.087Z,95.40
2023-04-15T04:37:28.134Z,95.37
2023-04-15T04:39:55.484Z,95.79
2023-04-15T04:42:22.886Z,95.36
2023-04-15T04:44:50.006Z,94.79
2023-04-15T04:47:17.064Z,95.60
2023-04-15T04:49:44.123Z,95.05
2023-04-15T04:52:11.724Z,95.47
2023-04-15T04:54:38.776Z,95.27
2023-04-15T04:57:07.894Z,95.25
2023-04-15T04:59:34.943Z,95.93
2023-04-15T05:02:02.118Z,96.26
2023-04-15T05:04:29.207Z,95.68
2023-04-15T05:06:56.795Z,96.41
2023-04-15T05:09:23.837Z,95.83
2023-04-15T05:11:51.024Z,95.72
2023-04-15T05:14:18.166Z,95.75
2023-04-15T05:16:45.323Z,96.08
2023-04-15T05:19:12.521Z,96.02
2023-04-15T05:21:39.729Z,95.90
2023-04-15T05:24:06.987Z,95.70
2023-04-15T05:26:34.054Z,95.45
2023-04-15T05:29:01.642Z,95.93
2023-04-15T05:31:29.218Z,95.68
2023-04-15T05:33:56.378Z,95.41
2023-04-15T05:36:23.436Z,95.46
2023-04-15T05:38:51.060Z,95.69
2023-04-15T05:41:19.862Z,95.68
2023-04-15T05:43:47.152Z,95.67
2023-04-15T05:46:14.287Z,95.29
2023-04-15T05:48:41.690Z,95.39
2023-04-15T05:51:09.180Z,95.27
2023-04-15T05:53:36.405Z,95.64
2023-04-15T05:56:04.256Z,95.17
2023-04-15T05:58:31.601Z,95.55
2023-04-15T06:00:58.869Z,95.41
2023-04-15T06:03:26.520Z,95.62
2023-04-15T06:05:54.943Z,95.59
2023-04-15T06:08:22.181Z,94.96
2023-04-15T06:10:49.223Z,94.75
2023-04-15T06:13:17.066Z,94.69
2023-04-15T06:15:44.177Z,95.15
2023-04-15T06:18:11.729Z,95.04
2023-04-15T06:20:38.805Z,95.32
2023-04-15T06:23:06.207Z,95.07
2023-04-15T06:25:33.622Z,95.78
2023-04-15T06:28:00.816Z,96.00
2023-04-15T06:30:28.058Z,95.52
2023-04-15T06:32:55.893Z,95.75
2023-04-15T06:35:23.148Z,95.36
2023-04-15T06:37:51.633Z,95.68
2023-04-15T06:40:19.117Z,95.73
2023-04-15T06:42:46.444Z,96.33
2023-04-15T06:45:14.264Z,96.21
2023-04-15T06:47:42.093Z,96.32
2023-04-15T06:50:09.764Z,96.52
2023-04-15T06:52:37.478Z,95.55
2023-04-15T06:55:05.321Z,95.36
2023-04-15T06:57:34.904Z,95.31
2023-04-15T07:00:02.576Z,95.69
2023-04-15T07:02:29.810Z,94.88
2023-04-15T07:04:57.040Z,95.57
2023-04-15T07:07:24.083Z,95.49
2023-04-15T07:09:53.691Z,95.65
2023-04-15T07:12:21.372Z,95.57
2023-04-15T07:14:49.583Z,95.26
2023-04-15T07:17:16.964Z,95.11
2023-04-15T07:19:44.013Z,95.38
2023-04-15T07:22:11.112Z,94.87
2023-04-15T07:24:38.174Z,94.73
2023-04-15T07:27:05.185Z,95.11
2023-04-15T07:29:32.475Z,94.12
2023-04-15T07:31:59.591Z,95.16
2023-04-15T07:34:26.698Z,95.39
2023-04-15T07:36:53.719Z,95.00
2023-04-15T07:39:20.963Z,95.21
2023-04-15T07:41:49.007Z,95.14
2023-04-15T07:44:16.142Z,95.39
2023-04-15T07:46:43.350Z,96.11
2023-04-15T07:49:10.424Z,95.19
2023-04-15T07:51:37.472Z,95.30
2023-04-15T07:54:04.653Z,95.62
2023-04-15T07:56:32.625Z,95.62
2023-04-15T07:59:02.260Z,95.62
2023-04-15T08:01:29.751Z,96.94
2023-04-15T08:03:57.277Z,95.80
2023-04-15T08:06:24.426Z,96.72
2023-04-15T08:08:51.999Z,95.77
2023-04-15T08:11:19.077Z,94.48
2023-04-15T08:13:46.896Z,95.00
2023-04-15T08:16:22.765Z,95.45
2023-04-15T08:18:51.438Z,95.46
2023-04-15T08:21:19.286Z,95.33
2023-04-15T08:23:47.772Z,96.60
2023-04-15T08:26:14.883Z,96.41
2023-04-15T08:28:42.402Z,95.75
2023-04-15T08:31:09.694Z,94.82
2023-04-15T08:33:36.970Z,94.88
2023-04-15T08:36:04.592Z,94.60
2023-04-15T08:38:31.793Z,95.28
2023-04-15T08:41:00.724Z,95.55
2023-04-15T08:43:28.834Z,95.60
2023-04-15T08:45:58.927Z,95.29
2023-04-15T08:48:29.223Z,95.84
2023-04-15T08:50:56.766Z,95.17
2023-04-15T08:53:24.371Z,95.13
2023-04-15T08:55:52.869Z,94.32
2023-04-15T08:58:19.941Z,94.51
2023-04-15T09:00:48.733Z,94.99
2023-04-15T09:03:17.756Z,95.31
2023-04-15T09:05:45.041Z,95.68
2023-04-15T09:08:12.687Z,95.93
2023-04-15T09:10:39.786Z,94.73
2023-04-15T09:13:07.020Z,93.75
2023-04-15T09:15:38.594Z,94.57
2023-04-15T09:18:06.794Z,92.72
2023-04-15T09:20:41.945Z,93.50
2023-04-15T09:23:14.143Z,94.27
2023-04-15T09:25:44.720Z,94.71
2023-04-15T09:28:11.863Z,95.09
2023-04-15T09:30:39.257Z,95.29
2023-04-15T09:33:10.902Z,95.30
2023-04-15T09:35:38.012Z,95.17
2023-04-15T09:38:09.756Z,94.72
2023-04-15T09:40:38.926Z,94.82
2023-04-15T09:43:07.589Z,94.92
2023-04-15T09:45:35.833Z,94.48
2023-04-15T09:48:21.531Z,93.75
2023-04-15T09:50:49.557Z,93.51
2023-04-15T09:53:21.407Z,93.46
2023-04-15T09:55:52.675Z,93.50
2023-04-15T09:58:27.810Z,93.48
2023-04-15T10:00:59.002Z,91.76
2023-04-15T10:03:31.902Z,92.72
2023-04-15T10:06:00.012Z,92.91
2023-04-15T10:08:29.558Z,93.57
2023-04-15T10:10:56.862Z,94.12
2023-04-15T10:13:25.846Z,94.10
2023-04-15T10:16:02.662Z,93.50
2023-04-15T10:18:31.422Z,93.55
2023-04-15T10:21:00.665Z,92.20
2023-04-15T10:23:28.196Z,92.06
2023-04-15T10:25:55.434Z,91.43
2023-04-15T10:28:25.581Z,91.37
2023-04-15T10:30:53.562Z,91.67
2023-04-15T10:33:22.650Z,90.31
2023-04-15T10:35:51.728Z,91.12
2023-04-15T10:38:34.934Z,90.84
2023-04-15T10:41:22.116Z,91.23
2023-04-15T10:43:56.164Z,91.00
2023-04-15T10:46:37.367Z,90.79
2023-04-15T10:49:10.952Z,90.79
2023-04-15T10:51:43.972Z,91.32
2023-04-15T10:54:18.176Z,91.56
2023-04-15T10:56:45.723Z,92.22
2023-04-15T10:59:13.151Z,91.68
2023-04-15T11:02:01.452Z,91.14
2023-04-15T11:04:53.347Z,89.91
2023-04-15T11:07:39.349Z,90.29
2023-04-15T11:10:18.581Z,91.01
2023-04-15T11:12:46.008Z,90.84
2023-04-15T11:15:32.071Z,90.68
2023-04-15T11:18:00.867Z,90.64
2023-04-15T11:20:28.890Z,89.08
2023-04-15T11:23:14.166Z,89.68
2023-04-15T11:25:43.617Z,90.65
2023-04-15T11:28:12.179Z,90.19
2023-04-15T11:30:40.047Z,88.78
2023-04-15T11:33:09.177Z,88.70
2023-04-15T11:35:36.686Z,88.79
2023-04-15T11:38:10.303Z,90.10
2023-04-15T11:40:37.881Z,88.55
2023-04-15T11:43:08.661Z,88.61
2023-04-15T11:45:48.691Z,88.79
2023-04-15T11:48:15.925Z,88.46
2023-04-15T11:50:42.991Z,88.94
2023-04-15T11:53:12.706Z,87.72
2023-04-15T11:55:47.812Z,87.92
2023-04-15T11:58:25.475Z,87.98
2023-04-15T12:01:00.140Z,88.31
2023-04-15T12:03:46.859Z,89.11
2023-04-15T12:06:21.044Z,88.89
2023-04-15T12:08:59.288Z,89.33
2023-04-15T12:11:26.211Z,90.11
2023-04-15T12:13:57.560Z,88.42
2023-04-15T12:16:25.138Z,88.99
2023-04-15T12:18:53.434Z,89.97
2023-04-15T12:21:21.041Z,89.89
2023-04-15T12:24:10.748Z,90.32
2023-04-15T12:26:53.373Z,88.35
2023-04-15T12:29:22.109Z,89.21
2023-04-15T12:31:53.473Z,88.34
2023-04-15T12:34:29.563Z,88.33
2023-04-15T12:36:58.643Z,89.02
2023-04-15T12:39:30.452Z,88.83
2023-04-15T12:41:59.195Z,88.34
2023-04-15T12:44:26.331Z,89.38
2023-04-15T12:46:53.700Z,88.09
2023-04-15T12:49:24.358Z,87.39
2023-04-15T12:51:53.542Z,86.87
2023-04-15T12:54:21.567Z,87.39
2023-04-15T12:56:55.445Z,88.27
2023-04-15T12:59:23.959Z,87.95
2023-04-15T13:01:52.154Z,87.57
2023-04-15T13:04:20.030Z,88.04
2023-04-15T13:06:47.586Z,87.81
2023-04-15T13:09:15.753Z,88.17
2023-04-15T13:11:43.323Z,87.73
2023-04-15T13:14:13.835Z,87.04
2023-04-15T13:16:41.447Z,86.82
2023-04-15T13:19:08.598Z,86.78
2023-04-15T13:21:36.418Z,86.38
2023-04-15T13:24:04.719Z,86.91
2023-04-15T13:26:32.825Z,87.73
2023-04-15T13:29:01.327Z,87.24
2023-04-15T13:31:28.487Z,87.53
2023-04-15T13:33:57.634Z,87.13
2023-04-15T13:36:24.785Z,86.81
2023-04-15T13:38:52.140Z,86.95
2023-04-15T13:41:20.089Z,87.39
2023-04-15T13:43:47.190Z,86.61
2023-04-15T13:46:14.727Z,86.98
2023-04-15T13:48:42.130Z,86.15
2023-04-15T13:51:09.277Z,86.12
2023-04-15T13:53:38.220Z,85.53
2023-04-15T13:56:07.866Z,84.56
2023-04-15T13:58:35.975Z,86.38
2023-04-15T14:01:05.529Z,86.21
2023-04-15T14:03:37.230Z,85.15
2023-04-15T14:06:05.632Z,85.88
2023-04-15T14:08:32.992Z,85.58
2023-04-15T14:11:00.113Z,85.43
2023-04-15T14:13:27.319Z,85.95
2023-04-15T14:15:54.395Z,85.94
2023-04-15T14:18:21.498Z,86.29
2023-04-15T14:20:48.579Z,87.06
2023-04-15T14:23:15.647Z,87.16
2023-04-15T14:25:42.956Z,85.05
2023-04-15T14:28:10.106Z,85.88
2023-04-15T14:30:37.331Z,86.45
2023-04-15T14:33:04.898Z,85.72
2023-04-15T14:35:32.512Z,85.92
2023-04-15T14:37:59.562Z,86.73
2023-04-15T14:40:26.680Z,85.89
2023-04-15T14:42:53.750Z,85.81
2023-04-15T14:45:20.877Z,84.35
2023-04-15T14:47:47.996Z,85.29
2023-04-15T14:50:15.057Z,84.55
2023-04-15T14:52:42.195Z,83.80
2023-04-15T14:55:10.419Z,84.51
2023-04-15T14:57:38.309Z,85.05
2023-04-15T15:00:07.303Z,84.73
2023-04-15T15:02:39.821Z,85.54
2023-04-15T15:05:08.744Z,84.65
2023-04-15T15:07:37.722Z,83.08
2023-04-15T15:10:06.043Z,83.54
2023-04-15T15:12:33.453Z,83.82
2023-04-15T15:15:02.928Z,85.38
2023-04-15T15:17:32.234Z,85.47
2023-04-15T15:19:59.806Z,85.64
2023-04-15T15:22:27.279Z,85.50
2023-04-15T15:24:54.413Z,85.40
2023-04-15T15:27:21.531Z,86.02
2023-04-15T15:29:49.035Z,85.56
2023-04-15T15:32:16.221Z,85.60
2023-04-15T15:34:43.239Z,85.01
2023-04-15T15:37:10.334Z,85.51
2023-04-15T15:39:37.409Z,85.81
2023-04-15T15:42:04.481Z,85.42
2023-04-15T15:44:34.387Z,84.70
2023-04-15T15:47:02.013Z,84.79
2023-04-15T15:49:29.211Z,85.12
2023-04-15T15:51:56.958Z,85.31
2023-04-15T15:54:24.756Z,84.91
2023-04-15T15:56:51.847Z,84.94
2023-04-15T15:59:19.242Z,85.30
2023-04-15T16:01:46.387Z,84.81
2023-04-15T16:04:13.828Z,85.33
2023-04-15T16:06:41.248Z,85.20
2023-04-15T16:09:08.286Z,84.70
2023-04-15T16:11:35.370Z,85.04
2023-04-15T16:14:02.492Z,85.49
2023-04-15T16:16:30.012Z,85.17
2023-04-15T16:18:57.830Z,85.34
2023-04-15T16:21:26.130Z,85.04
2023-04-15T16:23:53.570Z,85.18
2023-04-15T16:26:20.646Z,85.60
2023-04-15T16:28:47.731Z,85.24
2023-04-15T16:31:14.843Z,84.94
2023-04-15T16:33:41.928Z,85.23
2023-04-15T16:36:08.978Z,85.44
2023-04-15T16:38:36.022Z,85.31
2023-04-15T16:41:03.172Z,85.17
2023-04-15T16:43:30.240Z,84.13
2023-04-15T16:45:57.301Z,84.41
2023-04-15T16:48:24.397Z,84.23
2023-04-15T16:50:52.452Z,84.51
2023-04-15T16:53:19.516Z,84.64
2023-04-15T16:55:46.550Z,84.60
2023-04-15T16:58:13.625Z,84.10
2023-04-15T17:00:40.745Z,84.26
2023-04-15T17:03:07.992Z,84.64
2023-04-15T17:05:35.335Z,83.96
2023-04-15T17:08:02.517Z,84.27
2023-04-15T17:10:30.550Z,84.40
2023-04-15T17:12:58.500Z,83.90
2023-04-15T17:15:26.347Z,84.06
2023-04-15T17:17:54.154Z,84.59
2023-04-15T17:20:21.423Z,84.45
2023-04-15T17:22:48.929Z,84.19
2023-04-15T17:25:16.066Z,84.73
2023-04-15T17:27:43.250Z,84.61
2023-04-15T17:30:10.656Z,84.58
2023-04-15T17:32:39.342Z,81.99
2023-04-15T17:35:07.027Z,81.27
2023-04-15T17:37:34.745Z,81.83
2023-04-15T17:40:02.048Z,83.00
2023-04-15T17:42:29.173Z,83.71
2023-04-15T17:44:56.250Z,83.54
2023-04-15T17:47:23.308Z,84.01
2023-04-15T17:49:50.426Z,84.30
2023-04-15T17:52:17.711Z,82.96
2023-04-15T17:54:45.931Z,83.59
2023-04-15T17:57:12.992Z,83.81
2023-04-15T17:59:44.038Z,83.53
2023-04-15T18:02:11.729Z,83.64
2023-04-15T18:04:40.236Z,84.07
2023-04-15T18:07:07.669Z,84.98
2023-04-15T18:09:35.054Z,84.91
2023-04-15T18:12:04.549Z,85.31
2023-04-15T18:14:34.541Z,84.19
2023-04-15T18:17:02.494Z,83.28
2023-04-15T18:19:30.652Z,83.84
2023-04-15T18:21:59.864Z,83.04
2023-04-15T18:24:27.070Z,82.87
2023-04-15T18:26:54.200Z,84.19
2023-04-15T18:29:21.334Z,84.34
2023-04-15T18:31:48.507Z,83.61
2023-04-15T18:34:15.650Z,83.48
2023-04-15T18:36:42.933Z,83.70
2023-04-15T18:39:10.416Z,83.55
2023-04-15T18:41:37.550Z,83.70
2023-04-15T18:44:04.620Z,82.54
2023-04-15T18:46:31.656Z,83.24
2023-04-15T18:48:58.717Z,82.59
2023-04-15T18:51:25.945Z,83.75
2023-04-15T18:53:53.066Z,83.53
2023-04-15T18:56:20.312Z,84.47
2023-04-15T18:59:08.620Z,84.19
2023-04-15T19:01:34.816Z,83.89
2023-04-15T19:04:02.418Z,82.87
2023-04-15T19:06:29.526Z,83.11
2023-04-15T19:08:58.494Z,83.40
2023-04-15T19:11:26.137Z,83.29
2023-04-15T19:13:53.322Z,82.81
2023-04-15T19:16:20.944Z,83.52
2023-04-15T19:18:48.131Z,83.28
2023-04-15T19:21:15.478Z,82.74
2023-04-15T19:23:43.451Z,82.51
2023-04-15T19:26:11.746Z,82.99
2023-04-15T19:28:38.843Z,82.96
2023-04-15T19:31:06.023Z,83.23
2023-04-15T19:33:33.538Z,83.62
2023-04-15T19:36:06.194Z,83.32
2023-04-15T19:38:35.830Z,84.20
2023-04-15T19:41:02.903Z,84.70
2023-04-15T19:43:31.855Z,84.72
2023-04-15T19:45:58.945Z,84.93
2023-04-15T19:48:26.002Z,83.96
2023-04-15T19:50:53.166Z,84.47
2023-04-15T19:53:20.194Z,84.39
2023-04-15T19:55:48.385Z,84.52
2023-04-15T19:58:15.515Z,84.68
2023-04-15T20:00:42.727Z,84.43
2023-04-15T20:03:10.595Z,83.29
2023-04-15T20:05:37.761Z,83.89
2023-04-15T20:08:04.877Z,84.84
2023-04-15T20:10:31.988Z,84.28
2023-04-15T20:12:59.287Z,85.00
2023-04-15T20:15:26.379Z,85.38
2023-04-15T20:17:53.534Z,85.08
2023-04-15T20:20:20.966Z,84.57
2023-04-15T20:22:48.216Z,84.81
2023-04-15T20:25:15.357Z,84.82
2023-04-15T20:27:42.515Z,85.96
2023-04-15T20:30:09.971Z,85.30
2023-04-15T20:32:38.625Z,85.79
2023-04-15T20:35:06.861Z,85.74
2023-04-15T20:37:34.240Z,85.73
2023-04-15T20:40:01.655Z,85.68
2023-04-15T20:42:32.607Z,85.41
2023-04-15T20:44:59.726Z,86.16
2023-04-15T20:47:26.926Z,86.46
2023-04-15T20:49:54.224Z,85.70
2023-04-15T20:52:21.794Z,86.12
2023-04-15T20:54:48.844Z,86.36
2023-04-15T20:57:16.772Z,86.42
2023-04-15T20:59:43.872Z,86.51
2023-04-15T21:02:11.147Z,86.92
2023-04-15T21:04:38.911Z,86.72
2023-04-15T21:07:06.132Z,86.27
2023-04-15T21:09:33.308Z,86.53
2023-04-15T21:12:02.359Z,87.17
2023-04-15T21:14:29.652Z,87.30
2023-04-15T21:16:58.181Z,87.70
2023-04-15T21:19:25.365Z,88.52
2023-04-15T21:21:52.517Z,88.00
2023-04-15T21:24:19.584Z,88.08
2023-04-15T21:26:46.717Z,87.92
2023-04-15T21:29:14.264Z,88.26
2023-04-15T21:31:41.740Z,88.24
2023-04-15T21:34:09.866Z,88.54
2023-04-15T21:36:37.514Z,88.92
2023-04-15T21:39:05.658Z,89.12
2023-04-15T21:41:32.970Z,89.07
2023-04-15T21:44:00.271Z,89.12
2023-04-15T21:46:33.185Z,89.26
2023-04-15T21:49:02.584Z,89.15
2023-04-15T21:51:29.789Z,88.91
2023-04-15T21:53:57.113Z,88.42
2023-04-15T21:56:25.707Z,88.83
2023-04-15T21:58:57.009Z,89.13
2023-04-15T22:01:25.067Z,88.90
2023-04-15T22:03:52.551Z,89.10
2023-04-15T22:06:20.185Z,88.93
2023-04-15T22:08:55.971Z,89.63
2023-04-15T22:11:30.677Z,89.17
2023-04-15T22:13:58.534Z,89.01
2023-04-15T22:16:26.463Z,88.96
2023-04-15T22:18:54.769Z,89.62
2023-04-15T22:21:22.079Z,89.96
2023-04-15T22:23:49.277Z,89.53
2023-04-15T22:26:16.751Z,89.74
2023-04-15T22:28:43.854Z,89.40
2023-04-15T22:31:12.438Z,89.70
2023-04-15T22:33:39.620Z,89.85
2023-04-15T22:36:07.242Z,90.24
2023-04-15T22:38:34.305Z,90.24
2023-04-15T22:41:01.847Z,90.46
2023-04-15T22:43:28.951Z,90.07
2023-04-15T22:45:56.938Z,89.80
2023-04-15T22:48:24.255Z,90.11
2023-04-15T22:50:51.740Z,90.02
2023-04-15T22:53:18.982Z,90.09
2023-04-15T22:55:47.284Z,90.16
2023-04-15T22:58:15.558Z,90.38
2023-04-15T23:00:43.082Z,90.49
2023-04-15T23:03:10.880Z,90.15
2023-04-15T23:05:39.957Z,90.33
2023-04-15T23:08:07.674Z,89.98
2023-04-15T23:10:34.774Z,90.00
2023-04-15T23:13:01.930Z,89.80
2023-04-15T23:15:29.024Z,89.82
2023-04-15T23:17:56.154Z,89.81
2023-04-15T23:20:23.316Z,89.70
2023-04-15T23:22:50.440Z,89.84
2023-04-15T23:25:17.603Z,89.97
2023-04-15T23:27:44.705Z,89.76
2023-04-15T23:30:11.820Z,89.37
2023-04-15T23:32:39.073Z,90.15
2023-04-15T23:35:06.539Z,90.40
2023-04-15T23:37:33.633Z,90.20
2023-04-15T23:40:01.034Z,90.24
2023-04-15T23:42:28.145Z,90.40
2023-04-15T23:44:55.351Z,90.54
2023-04-15T23:47:22.642Z,90.15
2023-04-15T23:49:49.686Z,90.12
2023-04-15T23:52:16.718Z,90.19
2023-04-15T23:54:43.780Z,90.02
2023-04-15T23:57:10.810Z,90.06
2023-04-15T23:59:38.182Z,90.14
